createdAt,value
2019-03-22T00:00:44.545Z,0.00
2019-03-22T00:01:44.586Z,0.00
2019-03-22T00:02:44.513Z,0.00
2019-03-22T00:03:44.502Z,0.00
2019-03-22T00:04:44.491Z,0.00
2019-03-22T00:05:44.484Z,0.00
2019-03-22T00:06:44.481Z,0.00
2019-03-22T00:07:44.459Z,0.00
2019-03-22T00:08:44.448Z,0.00
2019-03-22T00:09:44.437Z,0.00
2019-03-22T00:10:44.426Z,0.00
2019-03-22T00:11:44.416Z,0.00
2019-03-22T00:12:44.417Z,0.00
2019-03-22T00:13:44.397Z,0.00
2019-03-22T00:14:44.389Z,0.00
2019-03-22T00:15:44.373Z,0.00
2019-03-22T00:16:44.362Z,0.00
2019-03-22T00:17:44.354Z,0.00
2019-03-22T00:18:44.350Z,0.00
2019-03-22T00:19:44.329Z,0.00
2019-03-22T00:20:44.318Z,0.00
2019-03-22T00:21:44.307Z,0.00
2019-03-22T00:22:44.296Z,0.00
2019-03-22T00:23:44.285Z,0.00
2019-03-22T00:24:44.286Z,0.00
2019-03-22T00:25:44.263Z,0.00
2019-03-22T00:26:44.252Z,0.00
2019-03-22T00:27:44.241Z,0.00
2019-03-22T00:28:44.229Z,0.00
2019-03-22T00:29:44.218Z,0.00
2019-03-22T00:30:44.231Z,0.00
2019-03-22T00:31:44.199Z,0.00
2019-03-22T00:32:44.185Z,0.00
2019-03-22T00:33:44.175Z,0.00
2019-03-22T00:34:44.163Z,0.00
2019-03-22T00:35:44.153Z,0.00
2019-03-22T00:36:44.154Z,0.00
2019-03-22T00:37:44.131Z,0.00
2019-03-22T00:38:44.121Z,0.00
2019-03-22T00:39:44.111Z,0.00
2019-03-22T00:40:44.100Z,0.00
2019-03-22T00:41:44.093Z,0.00
2019-03-22T00:42:44.088Z,0.00
2019-03-22T00:43:44.066Z,0.00
2019-03-22T00:44:44.060Z,0.00
2019-03-22T00:45:44.044Z,0.00
2019-03-22T00:46:44.034Z,0.00
2019-03-22T00:47:44.021Z,0.00
2019-03-22T00:48:44.020Z,0.00
2019-03-22T00:49:43.999Z,0.00
2019-03-22T00:50:43.988Z,0.00
2019-03-22T00:51:43.978Z,0.00
2019-03-22T00:52:43.966Z,0.00
2019-03-22T00:53:44.030Z,0.00
2019-03-22T00:54:43.959Z,0.00
2019-03-22T00:55:43.934Z,0.00
2019-03-22T00:56:43.935Z,0.00
2019-03-22T00:57:43.912Z,0.00
2019-03-22T00:58:43.914Z,0.00
2019-03-22T00:59:43.890Z,0.00
2019-03-22T01:00:43.891Z,0.00
2019-03-22T01:01:43.871Z,0.00
2019-03-22T01:02:43.859Z,0.00
2019-03-22T01:03:43.851Z,0.00
2019-03-22T01:04:43.839Z,0.00
2019-03-22T01:05:43.825Z,0.00
2019-03-22T01:06:43.827Z,0.00
2019-03-22T01:07:43.807Z,0.00
2019-03-22T01:08:43.792Z,0.00
2019-03-22T01:09:43.783Z,0.00
2019-03-22T01:10:43.770Z,0.00
2019-03-22T01:11:43.759Z,0.00
2019-03-22T01:12:43.759Z,0.00
2019-03-22T01:13:43.738Z,0.00
2019-03-22T01:14:43.730Z,0.00
2019-03-22T01:15:43.718Z,0.00
2019-03-22T01:16:43.705Z,0.00
2019-03-22T01:17:43.694Z,0.00
2019-03-22T01:18:43.694Z,0.00
2019-03-22T01:19:43.672Z,0.00
2019-03-22T01:20:43.661Z,0.00
2019-03-22T01:21:43.653Z,0.00
2019-03-22T01:22:43.641Z,0.00
2019-03-22T01:23:43.628Z,0.00
2019-03-22T01:24:43.628Z,0.00
2019-03-22T01:25:43.607Z,0.00
2019-03-22T01:26:43.595Z,0.00
2019-03-22T01:27:43.586Z,0.00
2019-03-22T01:28:43.574Z,0.00
2019-03-22T01:29:43.564Z,0.00
2019-03-22T01:30:43.564Z,0.00
2019-03-22T01:31:43.550Z,0.00
2019-03-22T01:32:43.530Z,0.00
2019-03-22T01:33:43.522Z,0.00
2019-03-22T01:34:43.509Z,0.00
2019-03-22T01:35:43.499Z,0.00
2019-03-22T01:36:43.499Z,0.00
2019-03-22T01:37:43.478Z,0.00
2019-03-22T01:38:43.466Z,0.00
2019-03-22T01:39:43.457Z,0.00
2019-03-22T01:40:43.445Z,0.00
2019-03-22T01:41:43.434Z,0.00
2019-03-22T01:42:43.442Z,0.00
2019-03-22T01:43:43.412Z,0.00
2019-03-22T01:44:43.402Z,0.00
2019-03-22T01:45:43.391Z,0.00
2019-03-22T01:46:43.381Z,0.00
2019-03-22T01:47:43.371Z,0.00
2019-03-22T01:48:43.387Z,0.00
2019-03-22T01:49:43.349Z,0.00
2019-03-22T01:50:43.338Z,0.00
2019-03-22T01:51:43.328Z,0.00
2019-03-22T01:52:43.316Z,0.00
2019-03-22T01:53:43.308Z,0.00
2019-03-22T01:54:43.305Z,0.00
2019-03-22T01:55:43.284Z,0.00
2019-03-22T01:56:43.274Z,0.00
2019-03-22T01:57:52.282Z,0.00
2019-03-22T01:58:44.254Z,0.00
2019-03-22T01:59:43.247Z,0.00
2019-03-22T02:00:43.240Z,0.00
2019-03-22T02:01:43.220Z,0.00
2019-03-22T02:02:43.214Z,0.00
2019-03-22T02:03:43.199Z,0.00
2019-03-22T02:04:43.188Z,0.00
2019-03-22T02:05:43.179Z,0.00
2019-03-22T02:06:43.177Z,0.00
2019-03-22T02:07:43.156Z,0.00
2019-03-22T02:08:43.149Z,0.00
2019-03-22T02:09:43.135Z,0.00
2019-03-22T02:10:43.127Z,0.00
2019-03-22T02:11:43.114Z,0.00
2019-03-22T02:12:43.119Z,0.00
2019-03-22T02:13:43.094Z,0.00
2019-03-22T02:14:43.083Z,0.00
2019-03-22T02:15:43.071Z,0.00
2019-03-22T02:16:43.061Z,0.00
2019-03-22T02:17:43.051Z,0.00
2019-03-22T02:18:43.051Z,0.00
2019-03-22T02:19:43.029Z,0.00
2019-03-22T02:20:43.020Z,0.00
2019-03-22T02:21:43.008Z,0.00
2019-03-22T02:22:42.998Z,0.00
2019-03-22T02:23:42.987Z,0.00
2019-03-22T02:24:42.995Z,0.00
2019-03-22T02:25:42.968Z,0.00
2019-03-22T02:26:42.956Z,0.00
2019-03-22T02:27:42.955Z,0.00
2019-03-22T02:28:42.934Z,0.00
2019-03-22T02:29:44.483Z,0.00
2019-03-22T02:30:42.925Z,0.00
2019-03-22T02:31:42.904Z,0.00
2019-03-22T02:32:42.896Z,0.00
2019-03-22T02:33:42.905Z,0.00
2019-03-22T02:34:42.877Z,0.00
2019-03-22T02:35:42.858Z,0.00
2019-03-22T02:36:42.858Z,0.00
2019-03-22T02:37:42.846Z,0.00
2019-03-22T02:38:42.826Z,0.00
2019-03-22T02:39:42.917Z,0.00
2019-03-22T02:40:42.808Z,0.00
2019-03-22T02:41:42.793Z,0.00
2019-03-22T02:42:42.793Z,0.00
2019-03-22T02:43:42.776Z,0.00
2019-03-22T02:44:42.760Z,0.00
2019-03-22T02:45:42.749Z,0.00
2019-03-22T02:46:42.738Z,0.00
2019-03-22T02:47:42.730Z,0.00
2019-03-22T02:48:42.727Z,0.00
2019-03-22T02:49:42.706Z,0.00
2019-03-22T02:50:42.699Z,0.00
2019-03-22T02:51:42.682Z,0.00
2019-03-22T02:52:42.672Z,0.00
2019-03-22T02:53:42.663Z,0.00
2019-03-22T02:54:42.662Z,0.00
2019-03-22T02:55:42.665Z,0.00
2019-03-22T02:56:42.630Z,0.00
2019-03-22T02:57:42.629Z,0.00
2019-03-22T02:58:42.619Z,0.00
2019-03-22T02:59:42.596Z,0.00
2019-03-22T03:00:42.600Z,0.00
2019-03-22T03:01:42.575Z,0.00
2019-03-22T03:02:42.570Z,0.00
2019-03-22T03:03:42.552Z,0.00
2019-03-22T03:04:42.545Z,0.00
2019-03-22T03:05:42.529Z,0.00
2019-03-22T03:06:42.530Z,0.00
2019-03-22T03:07:42.508Z,0.00
2019-03-22T03:08:42.500Z,0.00
2019-03-22T03:09:42.496Z,0.00
2019-03-22T03:10:42.475Z,0.00
2019-03-22T03:11:42.465Z,0.00
2019-03-22T03:12:42.492Z,0.00
2019-03-22T03:13:42.445Z,0.00
2019-03-22T03:14:42.432Z,0.00
2019-03-22T03:15:42.424Z,0.00
2019-03-22T03:16:42.415Z,0.00
2019-03-22T03:17:42.409Z,0.00
2019-03-22T03:18:42.403Z,0.00
2019-03-22T03:19:42.383Z,0.00
2019-03-22T03:20:42.388Z,0.00
2019-03-22T03:21:42.369Z,0.00
2019-03-22T03:22:42.349Z,0.00
2019-03-22T03:23:42.333Z,0.00
2019-03-22T03:24:42.344Z,0.00
2019-03-22T03:25:42.315Z,0.00
2019-03-22T03:26:42.300Z,0.00
2019-03-22T03:27:42.292Z,0.00
2019-03-22T03:28:42.282Z,0.00
2019-03-22T03:29:42.272Z,0.00
2019-03-22T03:30:42.281Z,0.00
2019-03-22T03:31:42.246Z,0.00
2019-03-22T03:32:42.236Z,0.00
2019-03-22T03:33:42.233Z,0.00
2019-03-22T03:34:42.225Z,0.00
2019-03-22T03:35:42.203Z,0.00
2019-03-22T03:36:42.212Z,0.00
2019-03-22T03:37:42.180Z,0.00
2019-03-22T03:38:42.171Z,0.00
2019-03-22T03:39:42.160Z,0.00
2019-03-22T03:40:42.149Z,0.00
2019-03-22T03:41:42.138Z,0.00
2019-03-22T03:42:42.140Z,0.00
2019-03-22T03:43:42.134Z,0.00
2019-03-22T03:44:42.106Z,0.00
2019-03-22T03:45:42.095Z,0.00
2019-03-22T03:46:42.084Z,0.00
2019-03-22T03:47:42.074Z,0.00
2019-03-22T03:48:42.082Z,0.00
2019-03-22T03:49:42.053Z,0.00
2019-03-22T03:50:42.041Z,0.00
2019-03-22T03:51:42.032Z,0.00
2019-03-22T03:52:42.057Z,0.00
2019-03-22T03:53:42.023Z,0.00
2019-03-22T03:54:42.012Z,0.00
2019-03-22T03:55:41.990Z,0.00
2019-03-22T03:56:41.995Z,0.00
2019-03-22T03:57:41.967Z,0.00
2019-03-22T03:58:52.275Z,0.00
2019-03-22T03:59:42.953Z,0.00
2019-03-22T04:00:41.933Z,0.00
2019-03-22T04:01:41.919Z,0.00
2019-03-22T04:02:41.909Z,0.00
2019-03-22T04:03:41.898Z,0.00
2019-03-22T04:04:41.896Z,0.00
2019-03-22T04:05:41.889Z,0.00
2019-03-22T04:06:41.867Z,0.00
2019-03-22T04:07:41.859Z,0.00
2019-03-22T04:08:41.848Z,0.00
2019-03-22T04:09:41.834Z,0.00
2019-03-22T04:10:41.823Z,0.00
2019-03-22T04:11:41.823Z,0.00
2019-03-22T04:12:41.800Z,0.00
2019-03-22T04:13:41.790Z,0.00
2019-03-22T04:14:41.780Z,0.00
2019-03-22T04:15:41.767Z,0.00
2019-03-22T04:16:41.770Z,0.00
2019-03-22T04:17:41.766Z,0.00
2019-03-22T04:18:41.748Z,0.00
2019-03-22T04:19:41.725Z,0.00
2019-03-22T04:20:41.714Z,0.00
2019-03-22T04:21:41.707Z,0.00
2019-03-22T04:22:41.702Z,0.00
2019-03-22T04:23:41.692Z,0.00
2019-03-22T04:24:41.681Z,0.00
2019-03-22T04:25:41.661Z,0.00
2019-03-22T04:26:41.652Z,0.00
2019-03-22T04:27:41.646Z,0.00
2019-03-22T04:28:41.628Z,0.00
2019-03-22T04:29:41.635Z,0.00
2019-03-22T04:30:41.604Z,0.00
2019-03-22T04:31:41.593Z,0.00
2019-03-22T04:32:41.582Z,0.00
2019-03-22T04:33:41.572Z,0.00
2019-03-22T04:34:41.579Z,0.00
2019-03-22T04:35:41.560Z,0.00
2019-03-22T04:36:41.543Z,0.00
2019-03-22T04:37:41.556Z,0.00
2019-03-22T04:38:41.517Z,0.00
2019-03-22T04:39:41.506Z,0.00
2019-03-22T04:40:41.500Z,0.00
2019-03-22T04:41:41.504Z,0.00
2019-03-22T04:42:41.473Z,0.00
2019-03-22T04:43:41.461Z,0.00
2019-03-22T04:44:41.453Z,0.00
2019-03-22T04:45:41.440Z,0.00
2019-03-22T04:46:41.430Z,0.00
2019-03-22T04:47:41.438Z,0.00
2019-03-22T04:48:41.415Z,0.00
2019-03-22T04:49:41.398Z,0.00
2019-03-22T04:50:41.387Z,0.00
2019-03-22T04:51:41.380Z,0.00
2019-03-22T04:52:41.366Z,0.00
2019-03-22T04:53:41.368Z,0.00
2019-03-22T04:54:41.345Z,0.00
2019-03-22T04:55:41.335Z,0.00
2019-03-22T04:56:41.323Z,0.00
2019-03-22T04:57:41.312Z,0.00
2019-03-22T04:58:41.302Z,0.00
2019-03-22T04:59:41.300Z,0.00
2019-03-22T05:00:41.283Z,0.00
2019-03-22T05:01:41.275Z,0.00
2019-03-22T05:02:41.259Z,0.00
2019-03-22T05:03:41.247Z,4.00
2019-03-22T05:04:41.259Z,4.00
2019-03-22T05:05:41.247Z,0.00
2019-03-22T05:06:41.217Z,4.00
2019-03-22T05:07:41.203Z,4.00
2019-03-22T05:08:41.193Z,4.00
2019-03-22T05:09:41.182Z,4.00
2019-03-22T05:10:41.175Z,4.00
2019-03-22T05:11:41.169Z,8.00
2019-03-22T05:12:41.149Z,8.00
2019-03-22T05:13:41.141Z,12.00
2019-03-22T05:14:41.129Z,12.00
2019-03-22T05:15:41.118Z,12.00
2019-03-22T05:16:41.106Z,16.00
2019-03-22T05:17:41.109Z,20.00
2019-03-22T05:18:43.911Z,20.00
2019-03-22T05:19:41.073Z,24.00
2019-03-22T05:20:41.069Z,28.00
2019-03-22T05:21:41.052Z,32.00
2019-03-22T05:22:41.041Z,36.00
2019-03-22T05:23:41.046Z,40.00
2019-03-22T05:24:41.021Z,44.00
2019-03-22T05:25:41.009Z,48.00
2019-03-22T05:26:40.998Z,52.00
2019-03-22T05:27:40.987Z,56.00
2019-03-22T05:28:40.979Z,64.00
2019-03-22T05:29:40.983Z,72.00
2019-03-22T05:30:40.954Z,72.00
2019-03-22T05:31:40.944Z,80.00
2019-03-22T05:32:40.941Z,88.00
2019-03-22T05:33:40.922Z,92.00
2019-03-22T05:34:40.911Z,96.00
2019-03-22T05:35:40.910Z,104.00
2019-03-22T05:36:40.890Z,112.00
2019-03-22T05:37:40.878Z,124.00
2019-03-22T05:38:40.870Z,132.00
2019-03-22T05:39:40.856Z,144.00
2019-03-22T05:40:40.847Z,156.00
2019-03-22T05:41:40.845Z,168.00
2019-03-22T05:42:40.824Z,184.00
2019-03-22T05:43:40.813Z,200.00
2019-03-22T05:44:40.801Z,216.00
2019-03-22T05:45:40.793Z,228.00
2019-03-22T05:46:40.780Z,240.00
2019-03-22T05:47:40.788Z,252.00
2019-03-22T05:48:40.760Z,264.00
2019-03-22T05:49:40.748Z,284.00
2019-03-22T05:50:40.745Z,304.00
2019-03-22T05:51:40.727Z,324.00
2019-03-22T05:52:40.716Z,336.00
2019-03-22T05:53:40.715Z,356.00
2019-03-22T05:54:40.694Z,372.00
2019-03-22T05:55:40.683Z,396.00
2019-03-22T05:56:40.675Z,416.00
2019-03-22T05:57:40.662Z,440.00
2019-03-22T05:58:40.652Z,464.00
2019-03-22T05:59:42.674Z,488.00
2019-03-22T06:00:40.633Z,504.00
2019-03-22T06:01:40.619Z,512.00
2019-03-22T06:02:40.608Z,532.00
2019-03-22T06:03:40.598Z,560.00
2019-03-22T06:04:40.586Z,592.00
2019-03-22T06:05:40.592Z,620.00
2019-03-22T06:06:40.565Z,672.00
2019-03-22T06:07:40.570Z,716.00
2019-03-22T06:08:40.545Z,768.00
2019-03-22T06:09:40.533Z,804.00
2019-03-22T06:10:40.522Z,840.00
2019-03-22T06:11:40.523Z,872.00
2019-03-22T06:12:40.501Z,888.00
2019-03-22T06:13:40.491Z,908.00
2019-03-22T06:14:40.480Z,936.00
2019-03-22T06:15:40.469Z,956.00
2019-03-22T06:16:40.458Z,1000.00
2019-03-22T06:17:51.145Z,1020.00
2019-03-22T06:18:41.438Z,1048.00
2019-03-22T06:19:40.425Z,1076.00
2019-03-22T06:20:40.414Z,1112.00
2019-03-22T06:21:40.404Z,1152.00
2019-03-22T06:22:40.392Z,1176.00
2019-03-22T06:23:40.401Z,1208.00
2019-03-22T06:24:40.371Z,1240.00
2019-03-22T06:25:40.360Z,1228.00
2019-03-22T06:26:40.349Z,1280.00
2019-03-22T06:27:40.340Z,1356.00
2019-03-22T06:28:40.327Z,1408.00
2019-03-22T06:29:40.328Z,1460.00
2019-03-22T06:30:40.314Z,1544.00
2019-03-22T06:31:40.295Z,1624.00
2019-03-22T06:32:40.283Z,1656.00
2019-03-22T06:33:40.271Z,1700.00
2019-03-22T06:34:40.262Z,1748.00
2019-03-22T06:35:40.261Z,1812.00
2019-03-22T06:36:40.239Z,1904.00
2019-03-22T06:37:40.228Z,1940.00
2019-03-22T06:38:40.218Z,2020.00
2019-03-22T06:39:40.207Z,2124.00
2019-03-22T06:40:40.196Z,2168.00
2019-03-22T06:41:40.206Z,2268.00
2019-03-22T06:42:40.174Z,2356.00
2019-03-22T06:43:40.166Z,2496.00
2019-03-22T06:44:40.152Z,2592.00
2019-03-22T06:45:40.142Z,2660.00
2019-03-22T06:46:40.131Z,2672.00
2019-03-22T06:47:40.132Z,2644.00
2019-03-22T06:48:40.110Z,2408.00
2019-03-22T06:49:40.099Z,2292.00
2019-03-22T06:50:40.089Z,2308.00
2019-03-22T06:51:40.078Z,2296.00
2019-03-22T06:52:40.070Z,2196.00
2019-03-22T06:53:40.067Z,2204.00
2019-03-22T06:54:40.046Z,2168.00
2019-03-22T06:55:40.036Z,2192.00
2019-03-22T06:56:40.024Z,2424.00
2019-03-22T06:57:40.013Z,2692.00
2019-03-22T06:58:40.008Z,2636.00
2019-03-22T06:59:40.013Z,2372.00
2019-03-22T07:00:39.982Z,2340.00
2019-03-22T07:01:39.972Z,2308.00
2019-03-22T07:02:39.966Z,2180.00
2019-03-22T07:03:39.955Z,2140.00
2019-03-22T07:04:39.939Z,2180.00
2019-03-22T07:05:39.941Z,2192.00
2019-03-22T07:06:39.919Z,2236.00
2019-03-22T07:07:39.911Z,2320.00
2019-03-22T07:08:39.896Z,2236.00
2019-03-22T07:09:39.896Z,2236.00
2019-03-22T07:10:39.876Z,2124.00
2019-03-22T07:11:41.867Z,2388.00
2019-03-22T07:12:39.854Z,2472.00
2019-03-22T07:13:39.865Z,2460.00
2019-03-22T07:14:39.834Z,2672.00
2019-03-22T07:15:39.844Z,2900.00
2019-03-22T07:16:39.811Z,3376.00
2019-03-22T07:17:39.811Z,4032.00
2019-03-22T07:18:39.793Z,5004.00
2019-03-22T07:19:39.782Z,5156.00
2019-03-22T07:20:39.772Z,5260.00
2019-03-22T07:21:39.764Z,5220.00
2019-03-22T07:22:39.750Z,5456.00
2019-03-22T07:23:39.755Z,5592.00
2019-03-22T07:24:39.723Z,5444.00
2019-03-22T07:25:39.713Z,5584.00
2019-03-22T07:26:39.701Z,5612.00
2019-03-22T07:27:39.692Z,6128.00
2019-03-22T07:28:39.680Z,6228.00
2019-03-22T07:29:39.687Z,6240.00
2019-03-22T07:30:39.658Z,6424.00
2019-03-22T07:31:39.649Z,6976.00
2019-03-22T07:32:39.638Z,7092.00
2019-03-22T07:33:39.629Z,7416.00
2019-03-22T07:34:39.616Z,7680.00
2019-03-22T07:35:39.618Z,8188.00
2019-03-22T07:36:39.595Z,8204.00
2019-03-22T07:37:39.591Z,7824.00
2019-03-22T07:38:39.575Z,7452.00
2019-03-22T07:39:39.564Z,7632.00
2019-03-22T07:40:39.552Z,8004.00
2019-03-22T07:41:39.551Z,8592.00
2019-03-22T07:42:39.530Z,8032.00
2019-03-22T07:43:39.545Z,7536.00
2019-03-22T07:44:39.506Z,7644.00
2019-03-22T07:45:39.496Z,7728.00
2019-03-22T07:46:39.485Z,7028.00
2019-03-22T07:47:39.497Z,6544.00
2019-03-22T07:48:39.464Z,6556.00
2019-03-22T07:49:39.454Z,6836.00
2019-03-22T07:50:39.443Z,6724.00
2019-03-22T07:51:39.439Z,7000.00
2019-03-22T07:52:39.438Z,6556.00
2019-03-22T07:53:39.426Z,6352.00
2019-03-22T07:54:39.397Z,7332.00
2019-03-22T07:55:39.392Z,7852.00
2019-03-22T07:56:39.390Z,7864.00
2019-03-22T07:57:39.369Z,8736.00
2019-03-22T07:58:39.357Z,8608.00
2019-03-22T07:59:39.369Z,8848.00
2019-03-22T08:00:39.335Z,9068.00
2019-03-22T08:01:39.325Z,10072.00
2019-03-22T08:02:39.313Z,9600.00
2019-03-22T08:03:39.302Z,11772.00
2019-03-22T08:04:39.300Z,11708.00
2019-03-22T08:05:50.582Z,14304.00
2019-03-22T08:06:40.270Z,12604.00
2019-03-22T08:07:39.261Z,9152.00
2019-03-22T08:08:39.249Z,9872.00
2019-03-22T08:09:39.276Z,11036.00
2019-03-22T08:10:39.245Z,10712.00
2019-03-22T08:11:39.235Z,9696.00
2019-03-22T08:12:39.205Z,10516.00
2019-03-22T08:13:39.210Z,12232.00
2019-03-22T08:14:39.192Z,14500.00
2019-03-22T08:15:39.171Z,18336.00
2019-03-22T08:16:39.160Z,17600.00
2019-03-22T08:17:39.169Z,16736.00
2019-03-22T08:18:39.138Z,18816.00
2019-03-22T08:19:39.160Z,19904.00
2019-03-22T08:20:39.180Z,20480.00
2019-03-22T08:21:39.112Z,20896.00
2019-03-22T08:22:39.094Z,19200.00
2019-03-22T08:23:39.104Z,22176.00
2019-03-22T08:24:39.085Z,22688.00
2019-03-22T08:25:39.075Z,21312.00
2019-03-22T08:26:39.090Z,17984.00
2019-03-22T08:27:39.040Z,20128.00
2019-03-22T08:28:39.057Z,23840.00
2019-03-22T08:29:39.047Z,25568.00
2019-03-22T08:30:43.272Z,26336.00
2019-03-22T08:31:38.996Z,26656.00
2019-03-22T08:32:38.986Z,28800.00
2019-03-22T08:33:38.975Z,29888.00
2019-03-22T08:34:38.965Z,29536.00
2019-03-22T08:35:38.966Z,29184.00
2019-03-22T08:36:38.952Z,31040.00
2019-03-22T08:37:38.932Z,30912.00
2019-03-22T08:38:38.936Z,28064.00
2019-03-22T08:39:38.910Z,26944.00
2019-03-22T08:40:38.904Z,29312.00
2019-03-22T08:41:38.940Z,28704.00
2019-03-22T08:42:38.912Z,27712.00
2019-03-22T08:43:38.868Z,31488.00
2019-03-22T08:44:38.879Z,33184.00
2019-03-22T08:45:38.846Z,32256.00
2019-03-22T08:46:38.859Z,31648.00
2019-03-22T08:47:38.865Z,32096.00
2019-03-22T08:48:38.814Z,32832.00
2019-03-22T08:49:38.948Z,32544.00
2019-03-22T08:50:38.813Z,33600.00
2019-03-22T08:51:38.806Z,34144.00
2019-03-22T08:52:38.781Z,33632.00
2019-03-22T08:53:38.768Z,33696.00
2019-03-22T08:54:38.747Z,34432.00
2019-03-22T08:55:38.736Z,34720.00
2019-03-22T08:56:38.728Z,35136.00
2019-03-22T08:57:38.732Z,37056.00
2019-03-22T08:58:38.713Z,35808.00
2019-03-22T08:59:38.702Z,34592.00
2019-03-22T09:00:39.861Z,34432.00
2019-03-22T09:01:38.671Z,34080.00
2019-03-22T09:02:38.670Z,34720.00
2019-03-22T09:03:38.650Z,34976.00
2019-03-22T09:04:38.644Z,33088.00
2019-03-22T09:05:38.655Z,31456.00
2019-03-22T09:06:38.618Z,35328.00
2019-03-22T09:07:38.607Z,36704.00
2019-03-22T09:08:38.597Z,35776.00
2019-03-22T09:09:41.672Z,36352.00
2019-03-22T09:10:38.625Z,35840.00
2019-03-22T09:11:38.602Z,35264.00
2019-03-22T09:12:38.634Z,35808.00
2019-03-22T09:13:38.542Z,36448.00
2019-03-22T09:14:38.557Z,37184.00
2019-03-22T09:15:42.030Z,38400.00
2019-03-22T09:16:38.511Z,38144.00
2019-03-22T09:17:38.517Z,30496.00
2019-03-22T09:18:38.541Z,15072.00
2019-03-22T09:19:38.477Z,8476.00
2019-03-22T09:20:38.525Z,7488.00
2019-03-22T09:21:38.455Z,6936.00
2019-03-22T09:22:38.448Z,6420.00
2019-03-22T09:23:38.453Z,6260.00
2019-03-22T09:24:39.535Z,6080.00
2019-03-22T09:25:38.453Z,5916.00
2019-03-22T09:26:47.708Z,5796.00
2019-03-22T09:27:39.389Z,5696.00
2019-03-22T09:28:38.398Z,5600.00
2019-03-22T09:29:38.437Z,5508.00
2019-03-22T09:30:38.357Z,5412.00
2019-03-22T09:31:38.395Z,5336.00
2019-03-22T09:32:38.386Z,5284.00
2019-03-22T09:33:38.324Z,5192.00
2019-03-22T09:34:38.313Z,5132.00
2019-03-22T09:35:38.313Z,5096.00
2019-03-22T09:36:38.294Z,5080.00
2019-03-22T09:37:38.287Z,5048.00
2019-03-22T09:38:38.270Z,5044.00
2019-03-22T09:39:38.261Z,4976.00
2019-03-22T09:40:38.284Z,4908.00
2019-03-22T09:41:38.249Z,4872.00
2019-03-22T09:42:38.244Z,4816.00
2019-03-22T09:43:38.219Z,4776.00
2019-03-22T09:44:43.224Z,4736.00
2019-03-22T09:45:39.193Z,4708.00
2019-03-22T09:46:38.195Z,4676.00
2019-03-22T09:47:38.184Z,4620.00
2019-03-22T09:48:38.181Z,4608.00
2019-03-22T09:49:38.166Z,4560.00
2019-03-22T09:50:38.146Z,4508.00
2019-03-22T09:51:38.132Z,4488.00
2019-03-22T09:52:38.125Z,4472.00
2019-03-22T09:53:38.119Z,4448.00
2019-03-22T09:54:38.113Z,4444.00
2019-03-22T09:55:38.086Z,4440.00
2019-03-22T09:56:46.798Z,4432.00
2019-03-22T09:57:39.064Z,4420.00
2019-03-22T09:58:38.099Z,4396.00
2019-03-22T09:59:38.062Z,4404.00
2019-03-22T10:00:38.120Z,4388.00
2019-03-22T10:01:38.021Z,4388.00
2019-03-22T10:02:38.070Z,4388.00
2019-03-22T10:03:38.003Z,4360.00
2019-03-22T10:04:38.018Z,4340.00
2019-03-22T10:05:37.988Z,4312.00
2019-03-22T10:06:37.967Z,4284.00
2019-03-22T10:07:37.981Z,4296.00
2019-03-22T10:08:37.944Z,4312.00
2019-03-22T10:09:37.976Z,4300.00
2019-03-22T10:10:37.966Z,4288.00
2019-03-22T10:11:37.934Z,4220.00
2019-03-22T10:12:37.900Z,4216.00
2019-03-22T10:13:37.890Z,4164.00
2019-03-22T10:14:37.906Z,4140.00
2019-03-22T10:15:37.879Z,4096.00
2019-03-22T10:16:37.861Z,4088.00
2019-03-22T10:17:37.860Z,4116.00
2019-03-22T10:18:37.841Z,4100.00
2019-03-22T10:19:37.826Z,4064.00
2019-03-22T10:20:37.828Z,4040.00
2019-03-22T10:21:37.895Z,4008.00
2019-03-22T10:22:37.804Z,3968.00
2019-03-22T10:23:37.817Z,3940.00
2019-03-22T10:24:37.846Z,3896.00
2019-03-22T10:25:37.788Z,3904.00
2019-03-22T10:26:37.756Z,3908.00
2019-03-22T10:27:37.744Z,3884.00
2019-03-22T10:28:37.768Z,3828.00
2019-03-22T10:29:37.795Z,3788.00
2019-03-22T10:30:37.738Z,3768.00
2019-03-22T10:31:38.012Z,3708.00
2019-03-22T10:32:37.701Z,3648.00
2019-03-22T10:33:37.712Z,3596.00
2019-03-22T10:34:39.719Z,3540.00
2019-03-22T10:35:37.674Z,3468.00
2019-03-22T10:36:37.687Z,3412.00
2019-03-22T10:37:37.633Z,3384.00
2019-03-22T10:38:37.621Z,3368.00
2019-03-22T10:39:37.614Z,3356.00
2019-03-22T10:40:37.600Z,3344.00
2019-03-22T10:41:37.637Z,3316.00
2019-03-22T10:42:37.644Z,3296.00
2019-03-22T10:43:37.567Z,3268.00
2019-03-22T10:44:39.360Z,3252.00
2019-03-22T10:45:37.607Z,3240.00
2019-03-22T10:46:37.563Z,3216.00
2019-03-22T10:47:37.535Z,3188.00
2019-03-22T10:48:37.516Z,3144.00
2019-03-22T10:49:37.547Z,3116.00
2019-03-22T10:50:37.494Z,3088.00
2019-03-22T10:51:37.486Z,3064.00
2019-03-22T10:52:37.497Z,3068.00
2019-03-22T10:53:37.475Z,3048.00
2019-03-22T10:54:37.450Z,3060.00
2019-03-22T10:55:37.442Z,3064.00
2019-03-22T10:56:37.431Z,3048.00
2019-03-22T10:57:40.085Z,3048.00
2019-03-22T10:58:37.407Z,3056.00
2019-03-22T10:59:37.415Z,3032.00
2019-03-22T11:00:37.409Z,2980.00
2019-03-22T11:01:48.598Z,2920.00
2019-03-22T11:02:38.365Z,2864.00
2019-03-22T11:03:37.441Z,2828.00
2019-03-22T11:04:37.343Z,2804.00
2019-03-22T11:05:37.347Z,2760.00
2019-03-22T11:06:37.320Z,2736.00
2019-03-22T11:07:37.309Z,2736.00
2019-03-22T11:08:37.302Z,2712.00
2019-03-22T11:09:37.287Z,2680.00
2019-03-22T11:10:37.277Z,2656.00
2019-03-22T11:11:37.275Z,2624.00
2019-03-22T11:12:37.254Z,2608.00
2019-03-22T11:13:37.243Z,2604.00
2019-03-22T11:14:37.232Z,2608.00
2019-03-22T11:15:37.224Z,2604.00
2019-03-22T11:16:37.213Z,2616.00
2019-03-22T11:17:37.211Z,2608.00
2019-03-22T11:18:37.761Z,2584.00
2019-03-22T11:19:37.183Z,2532.00
2019-03-22T11:20:37.175Z,2516.00
2019-03-22T11:21:37.156Z,2504.00
2019-03-22T11:22:37.148Z,2484.00
2019-03-22T11:23:37.153Z,2480.00
2019-03-22T11:24:37.125Z,2476.00
2019-03-22T11:25:37.113Z,2448.00
2019-03-22T11:26:37.106Z,2436.00
2019-03-22T11:27:37.094Z,2432.00
2019-03-22T11:28:37.083Z,2424.00
2019-03-22T11:29:37.090Z,2412.00
2019-03-22T11:30:37.060Z,2404.00
2019-03-22T11:31:40.072Z,2412.00
2019-03-22T11:32:37.040Z,2416.00
2019-03-22T11:33:37.028Z,2416.00
2019-03-22T11:34:37.019Z,2408.00
2019-03-22T11:35:37.242Z,2408.00
2019-03-22T11:36:36.996Z,2392.00
2019-03-22T11:37:36.988Z,2364.00
2019-03-22T11:38:36.974Z,2348.00
2019-03-22T11:39:36.964Z,2340.00
2019-03-22T11:40:36.954Z,2320.00
2019-03-22T11:41:36.960Z,2316.00
2019-03-22T11:42:36.933Z,2332.00
2019-03-22T11:43:36.921Z,2364.00
2019-03-22T11:44:36.910Z,2380.00
2019-03-22T11:45:36.900Z,2360.00
2019-03-22T11:46:36.897Z,2344.00
2019-03-22T11:47:36.898Z,2348.00
2019-03-22T11:48:36.868Z,2372.00
2019-03-22T11:49:36.859Z,2380.00
2019-03-22T11:50:36.846Z,2360.00
2019-03-22T11:51:36.838Z,2336.00
2019-03-22T11:52:36.825Z,2296.00
2019-03-22T11:53:36.825Z,2284.00
2019-03-22T11:54:36.804Z,2272.00
2019-03-22T11:55:36.793Z,2264.00
2019-03-22T11:56:36.786Z,2260.00
2019-03-22T11:57:36.772Z,2252.00
2019-03-22T11:58:36.764Z,2244.00
2019-03-22T11:59:36.762Z,2260.00
2019-03-22T12:00:36.741Z,2280.00
2019-03-22T12:01:36.730Z,2292.00
2019-03-22T12:02:36.718Z,2300.00
2019-03-22T12:03:36.721Z,2300.00
2019-03-22T12:04:36.696Z,2296.00
2019-03-22T12:05:40.467Z,2296.00
2019-03-22T12:06:36.675Z,2292.00
2019-03-22T12:07:36.666Z,2280.00
2019-03-22T12:08:36.654Z,2276.00
2019-03-22T12:09:36.645Z,2272.00
2019-03-22T12:10:36.632Z,2268.00
2019-03-22T12:11:36.636Z,2252.00
2019-03-22T12:12:36.618Z,2252.00
2019-03-22T12:13:36.599Z,2272.00
2019-03-22T12:14:36.592Z,2280.00
2019-03-22T12:15:36.578Z,2280.00
2019-03-22T12:16:36.567Z,2272.00
2019-03-22T12:17:36.570Z,2276.00
2019-03-22T12:18:36.561Z,2268.00
2019-03-22T12:19:36.535Z,2268.00
2019-03-22T12:20:36.525Z,2276.00
2019-03-22T12:21:36.513Z,2288.00
2019-03-22T12:22:38.484Z,2288.00
2019-03-22T12:23:36.518Z,2300.00
2019-03-22T12:24:36.488Z,2304.00
2019-03-22T12:25:36.473Z,2300.00
2019-03-22T12:26:36.463Z,2292.00
2019-03-22T12:27:36.994Z,2288.00
2019-03-22T12:28:36.437Z,2280.00
2019-03-22T12:29:36.446Z,2276.00
2019-03-22T12:30:36.415Z,2276.00
2019-03-22T12:31:36.404Z,2268.00
2019-03-22T12:32:36.393Z,2248.00
2019-03-22T12:33:36.382Z,2232.00
2019-03-22T12:34:36.371Z,2224.00